Time;durP1;ratioP1;P1;durP2;ratioP2;P2;SDS_P1;SDS_P2;PMS_P1;PMS_P2;Temp;Humidity;BMP_temperature;BMP_pressure;BME280_temperature;BME280_humidity;BME280_pressure;Samples;Min_cycle;Max_cycle;Signal;HPM_P1;HPM_P2
2022/12/30 00:00:20;;;;;;;;;47.75;41.00;;;;;7.73;79.96;100465.09;5036242;28;65778;-64
2022/12/30 00:02:45;;;;;;;;;16.25;15.75;;;;;7.68;79.69;100457.38;5019345;28;45380;-62
2022/12/30 00:05:10;;;;;;;;;14.50;13.75;;;;;7.69;79.64;100460.84;5034202;28;45364;-64
2022/12/30 00:07:36;;;;;;;;;13.75;13.75;;;;;7.66;79.38;100458.31;5034508;28;45453;-66
2022/12/30 00:10:02;;;;;;;;;10.75;10.75;;;;;7.63;80.15;100442.69;5034661;28;59319;-64
2022/12/30 00:34:47;;;;;;;;;18.25;15.00;;;;;7.35;80.51;100430.44;5047664;28;45250;-67
2022/12/30 00:37:12;;;;;;;;;14.50;14.50;;;;;7.35;80.37;100418.19;5023488;28;45569;-70
2022/12/30 00:39:37;;;;;;;;;10.00;10.00;;;;;7.36;80.34;100413.84;5028234;28;49256;-70
2022/12/30 00:44:46;;;;;;;;;9.50;9.50;;;;;7.34;80.59;100415.66;5017881;28;45245;-70
2022/12/30 00:47:12;;;;;;;;;9.25;9.00;;;;;7.32;81.52;100418.28;5031437;28;45374;-71
2022/12/30 00:57:51;;;;;;;;;15.50;15.50;;;;;7.27;81.09;100418.44;5035139;28;45332;-64
2022/12/30 01:00:16;;;;;;;;;10.25;10.25;;;;;7.26;81.50;100415.84;5029220;28;45484;-70
2022/12/30 01:02:42;;;;;;;;;8.25;8.25;;;;;7.25;81.25;100414.13;5018192;28;46318;-70
2022/12/30 01:05:07;;;;;;;;;9.00;9.00;;;;;7.24;80.78;100405.44;5039812;28;54672;-71
2022/12/30 01:07:33;;;;;;;;;7.25;7.00;;;;;7.24;81.36;100401.97;5040661;28;45217;-73
2022/12/30 01:09:58;;;;;;;;;8.50;8.25;;;;;7.23;81.82;100398.50;5037948;28;50922;-72
2022/12/30 01:12:24;;;;;;;;;7.75;7.75;;;;;7.20;81.80;100392.50;5035308;28;46285;-66
2022/12/30 01:14:52;;;;;;;;;7.25;7.25;;;;;7.16;81.58;100392.56;5018801;28;45390;-71
2022/12/30 01:17:21;;;;;;;;;8.75;8.75;;;;;7.07;80.90;100382.38;5035311;28;45357;-67
2022/12/30 01:19:46;;;;;;;;;9.50;9.50;;;;;7.15;81.64;100392.63;5032636;28;45209;-70
2022/12/30 01:22:12;;;;;;;;;9.00;8.50;;;;;7.09;81.09;100387.59;5015541;28;46279;-65
2022/12/30 01:24:37;;;;;;;;;13.00;13.00;;;;;7.11;81.68;100391.00;5007769;28;45297;-71
2022/12/30 01:27:04;;;;;;;;;9.75;9.75;;;;;7.10;82.35;100392.75;5034195;28;45553;-65
2022/12/30 01:29:36;;;;;;;;;7.25;7.25;;;;;7.10;81.24;100381.44;5034550;28;45928;-64
2022/12/30 01:32:06;;;;;;;;;7.25;7.25;;;;;7.10;81.85;100374.44;5016890;28;47011;-68
2022/12/30 01:34:32;;;;;;;;;7.75;7.75;;;;;7.09;81.68;100375.34;5017243;28;45485;-70
2022/12/30 01:36:58;;;;;;;;;5.00;5.00;;;;;7.09;81.37;100377.13;5035710;28;45404;-72
2022/12/30 01:39:23;;;;;;;;;9.00;8.25;;;;;7.06;81.75;100378.06;5035863;28;45519;-72
2022/12/30 01:41:49;;;;;;;;;8.25;8.25;;;;;7.08;82.35;100380.63;5035601;28;45348;-72
2022/12/30 01:44:45;;;;;;;;;12.00;10.00;;;;;7.08;81.99;100388.50;5034847;28;45727;-70
2022/12/30 01:47:17;;;;;;;;;9.00;9.00;;;;;7.07;81.83;100385.00;5017483;28;45492;-71
2022/12/30 01:49:46;;;;;;;;;7.75;7.75;;;;;7.09;81.95;100385.81;5001757;28;45498;-70
2022/12/30 01:52:14;;;;;;;;;8.50;8.00;;;;;7.09;81.67;100380.56;5050233;28;45342;-64
2022/12/30 01:54:40;;;;;;;;;12.25;11.00;;;;;7.12;81.89;100385.72;5034048;28;45435;-64
2022/12/30 01:57:07;;;;;;;;;9.25;8.50;;;;;7.12;81.79;100379.66;5026078;28;45459;-63
2022/12/30 01:59:33;;;;;;;;;8.00;8.00;;;;;7.13;81.59;100373.50;5019518;28;45702;-72
2022/12/30 02:01:59;;;;;;;;;9.00;8.50;;;;;7.15;81.70;100363.88;5023315;28;46367;-72
2022/12/30 02:04:27;;;;;;;;;8.00;8.00;;;;;7.16;82.37;100369.03;5018626;28;45471;-72
2022/12/30 02:06:58;;;;;;;;;8.75;8.75;;;;;7.18;82.08;100375.97;5020410;28;45391;-63
2022/12/30 02:09:25;;;;;;;;;7.00;7.00;;;;;7.16;82.02;100373.44;5018180;28;45779;-66
2022/12/30 02:11:51;;;;;;;;;7.00;7.00;;;;;7.11;82.56;100370.94;5024294;28;46255;-70
2022/12/30 02:14:18;;;;;;;;;6.50;6.50;;;;;7.19;82.47;100377.69;5037863;28;46365;-65
2022/12/30 02:16:49;;;;;;;;;6.00;6.00;;;;;7.22;82.31;100380.22;5015129;28;45446;-65
2022/12/30 02:20:01;;;;;;;;;10.00;9.25;;;;;7.21;82.14;100376.75;5018307;28;45340;-64
2022/12/30 02:23:03;;;;;;;;;9.25;9.25;;;;;7.24;81.72;100376.66;4976477;28;45447;-67
2022/12/30 02:25:41;;;;;;;;;9.50;9.50;;;;;7.24;82.15;100371.44;5022060;28;45331;-70
2022/12/30 02:28:29;;;;;;;;;8.25;8.25;;;;;7.25;82.68;100375.78;5029645;28;45569;-64
2022/12/30 02:31:09;;;;;;;;;11.25;11.25;;;;;7.28;82.39;100372.19;5032508;28;45422;-63
2022/12/30 02:33:56;;;;;;;;;9.00;9.00;;;;;7.31;81.99;100370.34;5037074;28;46772;-67
2022/12/30 02:36:32;;;;;;;;;11.50;11.50;;;;;7.34;82.56;100369.38;5036609;28;45458;-70
2022/12/30 02:39:19;;;;;;;;;12.00;12.00;;;;;7.35;82.52;100365.03;5038260;28;45456;-69
2022/12/30 02:44:39;;;;;;;;;14.00;11.75;;;;;7.34;82.84;100337.13;5024372;28;45452;-70
2022/12/30 02:47:20;;;;;;;;;13.00;13.00;;;;;7.38;82.50;100344.84;5034145;28;46071;-64
2022/12/30 02:52:14;;;;;;;;;12.00;12.00;;;;;7.37;82.84;100340.50;5036288;28;45374;-62
2022/12/30 02:52:36;;;;;;;;;13.00;13.00;;;;;7.38;82.77;100354.47;5034337;28;45464;-71
2022/12/30 02:55:03;;;;;;;;;10.00;10.00;;;;;7.39;83.59;100346.53;5035918;28;47016;-69
2022/12/30 02:57:31;;;;;;;;;15.25;15.25;;;;;7.39;83.59;100343.94;5035582;28;45483;-64
2022/12/30 03:05:49;;;;;;;;;9.50;9.50;;;;;7.47;82.94;100328.00;5017769;28;45697;-68
2022/12/30 03:08:35;;;;;;;;;14.00;12.50;;;;;7.42;83.36;100319.44;5038088;28;45361;-64
2022/12/30 03:11:18;;;;;;;;;9.00;9.00;;;;;7.48;83.39;100318.41;5034153;28;47020;-68
2022/12/30 03:14:09;;;;;;;;;10.75;10.75;;;;;7.52;83.51;100317.41;5038350;28;45335;-69
2022/12/30 03:16:41;;;;;;;;;14.00;14.00;;;;;7.52;82.96;100309.56;5036461;28;45435;-66
2022/12/30 03:19:14;;;;;;;;;12.75;11.50;;;;;7.45;83.37;100301.91;5036403;28;45452;-68
2022/12/30 03:21:41;;;;;;;;;10.50;10.50;;;;;7.51;83.66;100302.59;5027824;28;45409;-70
2022/12/30 03:27:05;;;;;;;;;12.25;12.25;;;;;7.50;83.52;100298.28;5024503;28;45785;-66
2022/12/30 03:29:53;;;;;;;;;12.25;11.75;;;;;7.48;84.26;100302.72;5036685;28;45433;-64
2022/12/30 03:32:20;;;;;;;;;11.50;11.50;;;;;7.49;83.87;100296.56;5024845;28;45258;-65
2022/12/30 03:34:47;;;;;;;;;10.25;9.75;;;;;7.42;83.64;100286.28;5031711;28;45500;-63
2022/12/30 03:37:25;;;;;;;;;16.00;13.00;;;;;7.43;84.09;100297.59;5014145;28;48408;-62
2022/12/30 03:40:12;;;;;;;;;7.50;7.50;;;;;7.40;84.06;100295.91;5032363;28;45297;-64
2022/12/30 03:42:38;;;;;;;;;15.50;13.00;;;;;7.44;84.49;100294.09;5031671;28;45338;-67
2022/12/30 03:45:04;;;;;;;;;16.25;16.00;;;;;7.43;84.83;100274.06;5036483;28;46227;-73
2022/12/30 03:47:29;;;;;;;;;14.25;14.00;;;;;7.54;84.36;100282.41;5036502;28;45301;-69
2022/12/30 03:49:55;;;;;;;;;16.25;15.50;;;;;7.57;84.59;100289.31;5036343;28;45313;-71
2022/12/30 03:52:21;;;;;;;;;19.25;18.00;;;;;7.60;84.94;100271.75;5017608;28;45175;-72
2022/12/30 03:54:47;;;;;;;;;14.00;13.50;;;;;7.65;83.94;100275.97;5018444;28;45416;-70
2022/12/30 03:57:13;;;;;;;;;14.00;14.00;;;;;7.68;84.23;100270.63;5035879;28;45784;-71
2022/12/30 03:59:39;;;;;;;;;13.25;12.50;;;;;7.68;84.39;100258.41;5038124;28;45243;-68
2022/12/30 04:02:05;;;;;;;;;9.00;9.00;;;;;7.64;84.18;100251.56;5029025;28;45487;-69
2022/12/30 04:04:30;;;;;;;;;10.00;10.00;;;;;7.67;83.82;100237.50;5026155;28;45683;-71
2022/12/30 04:06:55;;;;;;;;;7.75;7.50;;;;;7.67;83.72;100242.75;5027224;28;45935;-72
2022/12/30 04:09:21;;;;;;;;;10.75;10.75;;;;;7.64;83.68;100232.38;5017476;28;45812;-72
2022/12/30 04:11:46;;;;;;;;;8.75;8.75;;;;;7.51;83.94;100224.09;5025592;28;45882;-70
2022/12/30 04:14:11;;;;;;;;;10.00;10.00;;;;;7.60;84.23;100231.63;5034686;28;45475;-65
2022/12/30 04:16:37;;;;;;;;;7.00;7.00;;;;;7.64;83.87;100232.38;5035424;28;45428;-65
2022/12/30 04:19:03;;;;;;;;;8.50;8.50;;;;;7.62;84.41;100235.06;5025008;28;45453;-72
2022/12/30 04:21:28;;;;;;;;;12.25;12.25;;;;;7.63;84.41;100223.69;5023045;28;45384;-69
2022/12/30 04:23:53;;;;;;;;;9.50;9.50;;;;;7.64;84.27;100232.38;5035800;28;45361;-71
2022/12/30 04:26:19;;;;;;;;;11.00;11.00;;;;;7.64;84.58;100241.09;5033621;28;46121;-71
2022/12/30 04:28:44;;;;;;;;;11.25;11.25;;;;;7.64;84.55;100233.25;5036849;28;45394;-72
2022/12/30 04:31:10;;;;;;;;;11.00;10.75;;;;;7.66;84.42;100239.28;5032599;28;45317;-70
2022/12/30 04:33:35;;;;;;;;;13.00;13.00;;;;;7.65;84.57;100221.00;5026504;28;45567;-71
2022/12/30 04:36:00;;;;;;;;;12.25;12.25;;;;;7.66;84.47;100222.69;5035852;28;46218;-70
2022/12/30 04:38:25;;;;;;;;;12.25;12.25;;;;;7.65;85.25;100228.84;5019018;28;45459;-72
2022/12/30 04:40:51;;;;;;;;;14.00;14.00;;;;;7.67;84.74;100229.66;4998909;28;47778;-66
2022/12/30 04:43:16;;;;;;;;;12.50;11.00;;;;;7.65;84.69;100224.47;5032651;28;45714;-69
2022/12/30 04:45:43;;;;;;;;;10.00;9.00;;;;;7.66;85.43;100218.34;5024523;28;50184;-68
2022/12/30 04:48:08;;;;;;;;;10.50;10.50;;;;;7.67;84.74;100213.94;5026373;28;45209;-70
2022/12/30 04:50:34;;;;;;;;;10.50;10.50;;;;;7.69;84.77;100212.13;5026552;28;45420;-67
2022/12/30 04:52:59;;;;;;;;;7.75;7.75;;;;;7.71;85.00;100205.94;5029839;28;44791;-70
2022/12/30 04:55:25;;;;;;;;;11.00;9.25;;;;;7.71;85.03;100207.69;5043394;28;45458;-70
2022/12/30 04:57:50;;;;;;;;;10.50;10.00;;;;;7.69;85.13;100199.91;5034834;28;45518;-67
2022/12/30 05:00:15;;;;;;;;;11.00;11.00;;;;;7.77;84.87;100204.03;5035438;28;45844;-66
2022/12/30 05:02:41;;;;;;;;;7.25;7.25;;;;;7.77;85.70;100175.22;5034285;28;45325;-65
2022/12/30 05:05:06;;;;;;;;;7.50;7.50;;;;;7.80;84.97;100180.34;5033872;28;54965;-67
2022/12/30 05:07:32;;;;;;;;;9.25;8.75;;;;;7.81;84.93;100175.03;5024440;28;45432;-68
2022/12/30 05:09:58;;;;;;;;;11.75;11.75;;;;;7.80;84.93;100172.50;5016137;28;45456;-66
2022/12/30 05:12:23;;;;;;;;;6.75;6.75;;;;;7.82;85.16;100171.50;5016190;28;45643;-70
2022/12/30 05:14:48;;;;;;;;;8.25;8.25;;;;;7.83;84.91;100157.50;5034022;28;57540;-65
2022/12/30 05:17:14;;;;;;;;;8.50;8.00;;;;;7.81;85.07;100148.84;5034031;28;61051;-62
2022/12/30 05:19:39;;;;;;;;;8.25;8.25;;;;;7.83;85.74;100146.19;5036175;28;45299;-70
2022/12/30 05:22:04;;;;;;;;;7.00;7.00;;;;;7.88;85.33;100136.41;5031602;28;45508;-68
2022/12/30 05:27:13;;;;;;;;;8.50;8.50;;;;;7.94;85.45;100128.34;5024187;28;45188;-66
2022/12/30 05:29:39;;;;;;;;;5.00;5.00;;;;;7.96;85.36;100130.91;5035798;28;45672;-67
2022/12/30 05:32:04;;;;;;;;;9.00;9.00;;;;;7.95;85.80;100123.94;5035416;28;45299;-67
2022/12/30 05:34:30;;;;;;;;;6.75;5.75;;;;;7.99;85.69;100130.78;5037177;28;45471;-67
2022/12/30 05:36:55;;;;;;;;;7.25;7.25;;;;;7.93;85.52;100118.75;5025833;28;45257;-66
2022/12/30 05:39:20;;;;;;;;;8.25;7.00;;;;;8.02;85.71;100131.53;5021693;28;46445;-71
2022/12/30 05:41:46;;;;;;;;;8.75;8.75;;;;;8.03;85.53;100116.69;5028533;28;45595;-65
2022/12/30 05:44:11;;;;;;;;;5.50;5.50;;;;;8.02;85.11;100104.50;5037796;28;46333;-69
2022/12/30 05:46:36;;;;;;;;;4.75;4.75;;;;;8.07;85.12;100104.31;5024073;28;45547;-71
2022/12/30 05:49:03;;;;;;;;;8.00;6.50;;;;;8.12;85.51;100098.00;5038575;28;45262;-71
2022/12/30 05:51:29;;;;;;;;;5.00;5.00;;;;;8.13;85.27;100099.69;5030832;28;45674;-68
2022/12/30 05:53:54;;;;;;;;;4.75;4.75;;;;;8.07;85.20;100076.34;5028573;28;45520;-70
2022/12/30 05:56:19;;;;;;;;;7.75;6.50;;;;;8.16;85.49;100080.38;5035055;28;46000;-66
2022/12/30 05:58:45;;;;;;;;;4.00;4.00;;;;;8.15;85.36;100078.66;5037119;28;45323;-66
2022/12/30 06:01:10;;;;;;;;;4.00;4.00;;;;;8.20;85.53;100074.09;5022714;28;45557;-69
2022/12/30 06:03:35;;;;;;;;;5.00;5.00;;;;;8.24;85.54;100067.00;5025558;28;45487;-64
2022/12/30 06:06:04;;;;;;;;;7.50;7.50;;;;;8.26;85.25;100054.69;5037700;28;45285;-73
2022/12/30 06:08:29;;;;;;;;;4.00;4.00;;;;;8.29;85.08;100055.41;5020243;28;45466;-69
2022/12/30 06:10:55;;;;;;;;;5.75;5.75;;;;;8.31;85.42;100042.25;5022321;28;45582;-67
2022/12/30 06:13:21;;;;;;;;;4.00;4.00;;;;;8.30;85.51;100036.16;5037754;28;46105;-70
2022/12/30 06:15:46;;;;;;;;;3.00;3.00;;;;;8.36;85.65;100034.19;5040655;28;45555;-69
2022/12/30 06:18:12;;;;;;;;;5.00;5.00;;;;;8.40;85.59;100026.16;5038343;28;45304;-71
2022/12/30 06:20:37;;;;;;;;;8.00;8.00;;;;;8.40;85.63;100015.69;5037255;28;45330;-66
2022/12/30 06:23:03;;;;;;;;;10.75;9.25;;;;;8.46;85.38;100006.69;5037708;28;54709;-67
2022/12/30 06:25:29;;;;;;;;;6.25;6.00;;;;;8.49;85.23;100006.63;5036909;28;45781;-72
2022/12/30 06:27:54;;;;;;;;;4.00;4.00;;;;;8.48;85.13;99994.38;5037977;28;45495;-73
2022/12/30 06:30:20;;;;;;;;;4.00;4.00;;;;;8.51;85.12;100004.81;5039534;28;45354;-65
2022/12/30 06:32:46;;;;;;;;;3.50;3.50;;;;;8.52;85.08;100001.28;5037669;28;45987;-72
2022/12/30 06:35:12;;;;;;;;;5.25;4.25;;;;;8.56;85.05;99992.38;5038289;28;45292;-70
2022/12/30 06:37:37;;;;;;;;;5.50;5.50;;;;;8.57;85.12;99985.34;5038534;28;45379;-71
2022/12/30 06:40:03;;;;;;;;;14.50;12.50;;;;;8.57;85.25;99978.34;5039797;28;45391;-67
2022/12/30 06:42:29;;;;;;;;;10.50;9.75;;;;;8.60;85.82;99972.97;5018721;28;45574;-67
2022/12/30 06:44:54;;;;;;;;;5.00;5.00;;;;;8.66;85.38;99965.75;5035634;28;45472;-73
2022/12/30 06:47:19;;;;;;;;;4.50;4.50;;;;;8.67;84.92;99949.94;5038042;28;48198;-72
2022/12/30 06:49:45;;;;;;;;;5.25;4.25;;;;;8.69;84.87;99950.72;5038475;28;45361;-73
2022/12/30 06:52:10;;;;;;;;;3.25;3.25;;;;;8.65;85.04;99941.28;5020390;28;46561;-73
2022/12/30 06:54:35;;;;;;;;;3.25;3.25;;;;;8.69;84.67;99942.03;5031219;28;53920;-61
2022/12/30 06:57:01;;;;;;;;;6.50;5.75;;;;;8.70;84.96;99938.50;5026647;28;45266;-70
2022/12/30 06:59:26;;;;;;;;;6.25;5.75;;;;;8.70;84.82;99941.13;5037781;28;45276;-68
2022/12/30 07:01:51;;;;;;;;;7.25;7.25;;;;;8.70;84.77;99933.25;5038611;28;51563;-71
2022/12/30 07:04:17;;;;;;;;;4.75;4.75;;;;;8.72;84.87;99931.41;5038687;28;45269;-65
2022/12/30 07:06:42;;;;;;;;;3.50;3.50;;;;;8.72;84.54;99928.78;5045245;28;45451;-68
2022/12/30 07:09:07;;;;;;;;;4.75;4.50;;;;;8.75;84.98;99919.00;5038561;28;45618;-71
2022/12/30 07:11:32;;;;;;;;;5.00;5.00;;;;;8.77;84.79;99914.53;5023172;28;45656;-71
2022/12/30 07:13:58;;;;;;;;;3.00;3.00;;;;;8.76;84.47;99904.13;5036757;28;61618;-66
2022/12/30 07:16:24;;;;;;;;;5.25;5.25;;;;;8.78;85.04;99889.19;5019196;28;45228;-65
2022/12/30 07:18:50;;;;;;;;;3.75;3.75;;;;;8.83;84.84;99889.84;5023738;28;45577;-67
2022/12/30 07:21:16;;;;;;;;;9.75;8.50;;;;;8.83;84.43;99871.47;5052874;28;46152;-68
2022/12/30 07:23:41;;;;;;;;;4.50;4.50;;;;;8.87;84.64;99873.03;5047802;28;61829;-67
2022/12/30 07:26:07;;;;;;;;;6.25;6.00;;;;;8.90;84.04;99877.28;5031729;28;57743;-64
2022/12/30 07:28:32;;;;;;;;;3.00;3.00;;;;;8.92;83.89;99862.31;5036449;28;45591;-65
2022/12/30 07:30:58;;;;;;;;;4.25;4.25;;;;;8.91;83.85;99856.25;5035880;28;45549;-72
2022/12/30 07:33:23;;;;;;;;;3.00;3.00;;;;;8.93;84.20;99857.94;5018385;28;45334;-68
2022/12/30 07:35:48;;;;;;;;;3.25;2.75;;;;;8.96;84.10;99850.78;5019131;28;51865;-66
2022/12/30 07:38:13;;;;;;;;;4.50;4.25;;;;;8.99;83.85;99855.06;5018592;28;45519;-68
2022/12/30 07:40:39;;;;;;;;;7.75;7.75;;;;;8.98;84.01;99848.94;5038417;28;46218;-69
2022/12/30 07:43:04;;;;;;;;;5.50;5.50;;;;;9.04;83.85;99839.94;5040704;28;45277;-72
2022/12/30 07:45:29;;;;;;;;;12.75;12.75;;;;;9.07;82.81;99839.81;5024195;28;45598;-76
2022/12/30 07:47:58;;;;;;;;;2.75;2.75;;;;;9.09;83.79;99835.34;5036840;28;46820;-65
2022/12/30 07:50:23;;;;;;;;;2.00;2.00;;;;;9.13;83.18;99836.91;5022575;28;46305;-69
2022/12/30 07:52:48;;;;;;;;;2.75;2.75;;;;;9.14;82.96;99846.47;5035624;28;57405;-75
2022/12/30 07:55:14;;;;;;;;;8.00;4.00;;;;;9.12;82.68;99835.19;5056154;28;46023;-71
2022/12/30 07:57:39;;;;;;;;;15.25;14.50;;;;;9.15;82.80;99839.47;5046438;28;45457;-67
2022/12/30 08:00:05;;;;;;;;;4.25;4.25;;;;;9.21;82.57;99836.56;5035158;28;45534;-65
2022/12/30 08:02:30;;;;;;;;;3.50;3.50;;;;;9.23;82.10;99845.22;5020192;28;45413;-65
2022/12/30 08:04:55;;;;;;;;;1.50;1.50;;;;;9.25;82.02;99848.63;5035352;28;54063;-64
2022/12/30 08:07:21;;;;;;;;;3.00;3.00;;;;;9.26;81.99;99837.19;5019184;28;45518;-62
2022/12/30 08:09:46;;;;;;;;;2.25;2.25;;;;;9.20;81.78;99822.56;5015808;28;45867;-71
2022/12/30 08:12:12;;;;;;;;;3.75;3.75;;;;;9.24;81.59;99825.06;5018469;28;45390;-68
2022/12/30 08:14:38;;;;;;;;;1.75;1.75;;;;;9.28;81.16;99826.63;5037543;28;45265;-70
2022/12/30 08:17:03;;;;;;;;;3.00;3.00;;;;;9.30;80.71;99822.16;5022376;28;45563;-71
2022/12/30 08:19:29;;;;;;;;;2.25;2.25;;;;;9.31;81.06;99808.09;5024665;28;45455;-64
2022/12/30 08:21:54;;;;;;;;;3.00;3.00;;;;;9.30;80.93;99796.75;5029659;28;45267;-74
2022/12/30 08:24:19;;;;;;;;;2.00;2.00;;;;;9.32;80.98;99797.53;5015817;28;45207;-64
2022/12/30 08:26:45;;;;;;;;;2.75;2.75;;;;;9.33;80.80;99785.25;5015302;28;45482;-70
2022/12/30 08:29:10;;;;;;;;;1.00;1.00;;;;;9.31;81.24;99790.59;5046209;28;47635;-64
2022/12/30 08:31:36;;;;;;;;;2.00;2.00;;;;;9.37;81.17;99793.84;5035842;28;45361;-62
2022/12/30 08:34:05;;;;;;;;;1.75;1.75;;;;;9.38;81.44;99798.16;5036109;28;45331;-65
2022/12/30 08:36:30;;;;;;;;;3.00;3.00;;;;;9.32;81.44;99788.81;5018222;28;45629;-63
2022/12/30 08:39:02;;;;;;;;;3.75;3.75;;;;;9.31;82.15;99785.34;5035616;28;45389;-63
2022/12/30 08:41:31;;;;;;;;;2.75;2.75;;;;;9.29;82.39;99778.44;5035353;28;45276;-66
2022/12/30 08:44:01;;;;;;;;;3.00;3.00;;;;;9.21;82.05;99765.72;5035518;28;45340;-63
2022/12/30 08:46:29;;;;;;;;;3.75;3.75;;;;;9.25;82.86;99776.91;5035342;28;45414;-63
2022/12/30 08:48:54;;;;;;;;;2.00;2.00;;;;;9.18;83.03;99753.56;5033792;28;45944;-62
2022/12/30 08:51:19;;;;;;;;;5.00;5.00;;;;;9.18;83.07;99755.38;5034156;28;55850;-63
2022/12/30 08:53:45;;;;;;;;;1.75;1.75;;;;;9.13;83.10;99752.94;5035209;28;45367;-63
2022/12/30 08:56:19;;;;;;;;;3.25;3.25;;;;;8.90;83.46;99712.91;5035919;28;45300;-66
2022/12/30 08:58:44;;;;;;;;;5.00;5.00;;;;;9.02;84.00;99742.13;5017002;28;46497;-63
2022/12/30 09:01:17;;;;;;;;;3.25;3.25;;;;;9.05;84.32;99728.84;5035652;28;45331;-63
2022/12/30 09:03:43;;;;;;;;;2.75;2.75;;;;;9.01;84.46;99724.66;5034356;28;45359;-65
2022/12/30 09:06:10;;;;;;;;;2.00;2.00;;;;;8.97;84.91;99720.50;5035333;28;45271;-61
2022/12/30 09:08:37;;;;;;;;;8.25;8.25;;;;;8.94;85.56;99715.41;5035092;28;45541;-62
2022/12/30 09:11:08;;;;;;;;;1.50;1.50;;;;;8.90;85.76;99712.91;5038060;28;45309;-65
2022/12/30 09:13:37;;;;;;;;;5.00;5.00;;;;;8.88;86.07;99706.91;5034826;28;45383;-64
2022/12/30 09:16:11;;;;;;;;;4.75;4.75;;;;;8.88;86.45;99683.28;5035018;28;45319;-63
2022/12/30 09:18:37;;;;;;;;;3.00;3.00;;;;;8.86;86.63;99679.91;5034309;28;46682;-63
2022/12/30 09:21:03;;;;;;;;;4.50;4.50;;;;;8.86;86.85;99663.28;5034734;28;45254;-62
2022/12/30 09:23:29;;;;;;;;;3.00;3.00;;;;;8.85;87.00;99661.59;5018404;28;45489;-63
2022/12/30 09:25:54;;;;;;;;;2.75;2.75;;;;;8.87;87.22;99658.00;5034905;28;45292;-63
2022/12/30 09:28:19;;;;;;;;;3.00;3.00;;;;;8.78;87.33;99661.06;5034354;28;48251;-63
2022/12/30 09:30:45;;;;;;;;;5.50;5.50;;;;;8.83;87.46;99666.06;5035165;28;45236;-64
2022/12/30 09:33:10;;;;;;;;;3.75;3.75;;;;;8.79;87.76;99657.50;5034937;28;45315;-64
2022/12/30 09:35:36;;;;;;;;;13.00;13.00;;;;;8.79;88.08;99668.00;5034559;28;45600;-64
2022/12/30 09:38:01;;;;;;;;;3.75;3.75;;;;;8.76;88.12;99663.72;5034252;28;49953;-64
2022/12/30 09:40:54;;;;;;;;;3.00;3.00;;;;;8.77;88.48;99652.31;5034372;28;45403;-65
2022/12/30 09:43:59;;;;;;;;;3.75;3.75;;;;;8.78;88.57;99650.56;5034756;28;45353;-64
2022/12/30 09:46:43;;;;;;;;;3.00;3.00;;;;;8.69;88.73;99627.41;5016944;28;45297;-65
2022/12/30 09:49:32;;;;;;;;;3.00;3.00;;;;;8.74;89.13;99638.53;5034542;28;45418;-61
2022/12/30 09:52:16;;;;;;;;;3.25;3.25;;;;;8.77;89.34;99628.72;5034218;28;45491;-63
2022/12/30 09:54:49;;;;;;;;;26.00;25.75;;;;;8.77;89.89;99620.84;5035259;28;45707;-64
2022/12/30 09:57:31;;;;;;;;;12.75;12.75;;;;;8.79;89.75;99627.78;5019184;28;45508;-63
2022/12/30 10:00:18;;;;;;;;;3.25;3.25;;;;;8.79;89.89;99627.78;5035083;28;45532;-63
2022/12/30 10:03:06;;;;;;;;;2.50;2.50;;;;;8.79;89.91;99620.78;5034176;28;45342;-65
2022/12/30 10:05:59;;;;;;;;;4.00;4.00;;;;;8.81;90.37;99604.97;5034429;28;45215;-65
2022/12/30 10:08:45;;;;;;;;;4.50;4.50;;;;;8.81;90.64;99599.72;5018171;28;45249;-66
2022/12/30 10:11:37;;;;;;;;;3.50;3.50;;;;;8.80;91.11;99583.16;5034828;28;45254;-65
2022/12/30 10:14:02;;;;;;;;;3.25;3.25;;;;;8.82;91.22;99583.94;5031169;28;45457;-65
2022/12/30 10:16:43;;;;;;;;;3.00;3.00;;;;;8.76;91.56;99548.34;5034457;28;45323;-64
2022/12/30 10:19:17;;;;;;;;;2.25;2.25;;;;;8.83;91.81;99562.03;5034498;28;45510;-64
2022/12/30 10:21:54;;;;;;;;;4.75;4.75;;;;;8.83;92.14;99546.28;5033996;28;45728;-64
2022/12/30 10:24:47;;;;;;;;;5.50;5.50;;;;;8.86;92.31;99530.41;5033523;28;45362;-62
2022/12/30 10:27:41;;;;;;;;;3.50;3.50;;;;;8.86;92.38;99530.41;5037601;28;45435;-64
2022/12/30 10:30:21;;;;;;;;;2.50;2.50;;;;;8.89;92.76;99524.16;5038141;28;45347;-64
2022/12/30 10:32:53;;;;;;;;;4.00;4.00;;;;;8.88;92.21;99533.81;5039180;28;45584;-65
2022/12/30 10:35:29;;;;;;;;;4.00;4.00;;;;;8.88;93.04;99531.19;5039599;28;45396;-64
2022/12/30 10:38:19;;;;;;;;;3.25;3.25;;;;;8.87;93.22;99491.91;5024660;28;45415;-67
2022/12/30 10:41:14;;;;;;;;;3.00;3.00;;;;;9.00;93.34;99524.44;5023451;28;45238;-66
2022/12/30 10:44:17;;;;;;;;;6.00;6.00;;;;;9.04;93.77;99512.91;5019104;28;47085;-63
2022/12/30 10:47:03;;;;;;;;;4.50;4.50;;;;;9.09;93.95;99520.53;5037292;28;45407;-63
2022/12/30 10:49:49;;;;;;;;;2.75;2.75;;;;;9.17;93.66;99502.63;5037152;28;45374;-62
2022/12/30 10:52:15;;;;;;;;;4.00;4.00;;;;;9.23;94.74;99487.47;5037085;28;45301;-62
2022/12/30 10:54:41;;;;;;;;;2.50;2.50;;;;;9.29;94.75;99510.78;5036922;28;46541;-61
2022/12/30 10:57:16;;;;;;;;;10.75;10.75;;;;;9.31;94.66;99494.03;5037862;28;45229;-62
2022/12/30 10:59:42;;;;;;;;;0.00;0.00;;;;;9.38;95.01;99468.28;5041139;28;45387;-65
2022/12/30 11:02:22;;;;;;;;;2.25;2.25;;;;;9.45;95.13;99480.16;5037373;28;45166;-63
2022/12/30 11:04:48;;;;;;;;;2.00;2.00;;;;;9.46;95.00;99460.84;5037294;28;47100;-67
2022/12/30 11:07:15;;;;;;;;;2.75;2.75;;;;;9.56;94.96;99463.03;5036955;28;45342;-65
2022/12/30 11:09:42;;;;;;;;;2.50;2.50;;;;;9.61;95.24;99466.25;5037156;28;45209;-62
2022/12/30 11:15:17;;;;;;;;;3.75;3.75;;;;;9.72;95.34;99426.25;5036715;28;45659;-63
2022/12/30 11:17:52;;;;;;;;;1.50;1.50;;;;;9.81;94.84;99433.63;5039982;28;45406;-63
2022/12/30 11:20:24;;;;;;;;;0.75;0.75;;;;;9.85;95.13;99453.53;5037353;28;45286;-65
2022/12/30 11:22:51;;;;;;;;;1.00;1.00;;;;;9.86;94.75;99457.00;5037077;28;45477;-64
2022/12/30 11:25:43;;;;;;;;;2.00;2.00;;;;;9.94;94.92;99436.41;5037005;28;45424;-65
2022/12/30 11:28:27;;;;;;;;;2.25;2.25;;;;;10.00;94.61;99425.56;5037508;28;45267;-64
2022/12/30 11:30:55;;;;;;;;;2.75;2.75;;;;;10.06;94.65;99427.84;5037372;28;45410;-63
2022/12/30 11:33:25;;;;;;;;;2.50;2.50;;;;;10.13;95.00;99422.25;5036653;28;45290;-65
2022/12/30 11:35:51;;;;;;;;;1.00;1.00;;;;;10.15;94.50;99420.38;5036788;28;46341;-66
2022/12/30 11:38:31;;;;;;;;;2.00;2.00;;;;;10.21;94.60;99399.00;5037016;28;45202;-66
2022/12/30 11:40:57;;;;;;;;;1.75;1.75;;;;;10.26;94.81;99432.91;5039486;28;45324;-67
2022/12/30 11:43:23;;;;;;;;;1.25;1.25;;;;;10.28;95.13;99397.72;5039670;28;45257;-64
2022/12/30 11:46:08;;;;;;;;;1.00;1.00;;;;;10.34;95.20;99392.09;5036376;28;45451;-65
2022/12/30 11:48:56;;;;;;;;;2.75;2.75;;;;;10.37;94.81;99410.31;5036087;28;45463;-65
2022/12/30 11:51:49;;;;;;;;;4.00;4.00;;;;;10.39;95.61;99407.59;5035908;28;45342;-63
2022/12/30 11:54:23;;;;;;;;;2.50;2.50;;;;;10.42;95.35;99393.44;5035917;28;45334;-64
2022/12/30 11:56:57;;;;;;;;;2.25;2.25;;;;;10.46;95.63;99398.47;5018361;28;48221;-65
2022/12/30 11:59:32;;;;;;;;;2.00;2.00;;;;;10.47;95.46;99391.41;5036042;28;45673;-64
2022/12/30 12:02:33;;;;;;;;;3.25;3.25;;;;;10.50;95.58;99378.06;5036165;28;45361;-65
2022/12/30 12:05:00;;;;;;;;;1.25;1.25;;;;;10.52;96.37;99394.59;5036289;28;45490;-65
2022/12/30 12:07:35;;;;;;;;;2.00;2.00;;;;;10.55;95.66;99404.09;5035966;28;45317;-64
2022/12/30 12:10:23;;;;;;;;;1.50;1.50;;;;;10.57;96.41;99384.66;5035992;28;45340;-66
2022/12/30 12:12:55;;;;;;;;;2.25;2.25;;;;;10.62;96.77;99382.63;5036370;28;45723;-64
2022/12/30 12:15:47;;;;;;;;;2.00;2.00;;;;;10.65;97.02;99385.06;5036373;28;45412;-64
2022/12/30 12:18:42;;;;;;;;;2.00;2.00;;;;;10.71;96.43;99383.84;5035780;28;46379;-65
2022/12/30 12:21:19;;;;;;;;;3.00;3.00;;;;;10.76;96.50;99394.94;5035401;28;45202;-64
2022/12/30 12:24:34;;;;;;;;;1.00;1.00;;;;;10.79;96.65;99381.59;5036712;28;45470;-64
2022/12/30 12:27:22;;;;;;;;;1.50;1.50;;;;;10.85;97.01;99383.03;5003433;28;45491;-65
2022/12/30 12:30:00;;;;;;;;;2.00;2.00;;;;;10.90;97.04;99380.09;5017641;28;45405;-64
2022/12/30 12:32:44;;;;;;;;;1.75;1.75;;;;;10.93;97.39;99383.41;5017372;28;45360;-64
2022/12/30 12:35:34;;;;;;;;;2.00;2.00;;;;;10.98;97.67;99375.22;5016712;28;45385;-63
2022/12/30 12:38:24;;;;;;;;;1.00;1.00;;;;;11.02;97.15;99368.81;5016156;28;45577;-63
2022/12/30 12:41:35;;;;;;;;;2.00;2.00;;;;;11.05;97.26;99373.91;5017616;28;45769;-63